createdAt,value
2022-10-28T00:02:21.355Z,12.60
2022-10-28T00:04:47.969Z,12.60
2022-10-28T00:07:14.565Z,12.80
2022-10-28T00:09:41.224Z,12.90
2022-10-28T00:12:07.823Z,12.70
2022-10-28T00:14:34.470Z,12.80
2022-10-28T00:17:01.080Z,12.80
2022-10-28T00:19:27.673Z,12.80
2022-10-28T00:21:54.289Z,12.90
2022-10-28T00:24:20.908Z,12.90
2022-10-28T00:26:47.518Z,13.00
2022-10-28T00:29:14.124Z,12.90
2022-10-28T00:31:40.811Z,12.90
2022-10-28T00:34:07.410Z,13.00
2022-10-28T00:36:34.039Z,12.70
2022-10-28T00:39:00.634Z,12.60
2022-10-28T00:41:27.237Z,12.50
2022-10-28T00:43:53.846Z,12.50
2022-10-28T00:46:20.476Z,12.40
2022-10-28T00:48:47.090Z,12.30
2022-10-28T00:51:13.737Z,12.50
2022-10-28T00:53:40.387Z,12.50
2022-10-28T00:56:06.978Z,12.30
2022-10-28T00:58:33.597Z,12.20
2022-10-28T01:01:00.242Z,12.30
2022-10-28T01:03:26.862Z,12.10
2022-10-28T01:05:53.519Z,12.20
2022-10-28T01:08:20.124Z,12.00
2022-10-28T01:10:46.767Z,12.00
2022-10-28T01:13:13.359Z,11.90
2022-10-28T01:15:39.947Z,12.00
2022-10-28T01:18:06.559Z,11.90
2022-10-28T01:20:37.895Z,11.90
2022-10-28T01:23:07.627Z,12.00
2022-10-28T01:25:34.237Z,12.20
2022-10-28T01:28:00.855Z,12.20
2022-10-28T01:30:27.468Z,12.40
2022-10-28T01:32:54.396Z,12.40
2022-10-28T01:35:21.263Z,12.50
2022-10-28T01:37:47.884Z,12.40
2022-10-28T01:40:14.526Z,12.20
2022-10-28T01:42:41.160Z,12.00
2022-10-28T01:45:07.775Z,12.00
2022-10-28T01:47:34.396Z,11.80
2022-10-28T01:50:00.994Z,12.00
2022-10-28T01:52:27.666Z,12.00
2022-10-28T01:54:54.253Z,12.00
2022-10-28T01:57:20.865Z,11.40
2022-10-28T01:59:47.467Z,11.40
2022-10-28T02:02:14.097Z,11.70
2022-10-28T02:04:40.741Z,11.30
2022-10-28T02:07:07.344Z,11.70
2022-10-28T02:09:33.952Z,11.90
2022-10-28T02:12:00.751Z,12.00
2022-10-28T02:14:27.370Z,11.70
2022-10-28T02:16:53.960Z,11.60
2022-10-28T02:19:20.550Z,11.60
2022-10-28T02:21:47.173Z,11.70
2022-10-28T02:24:13.803Z,11.70
2022-10-28T02:26:40.417Z,11.90
2022-10-28T02:29:07.031Z,11.80
2022-10-28T02:31:33.701Z,11.70
2022-10-28T02:34:00.302Z,11.70
2022-10-28T02:36:26.949Z,11.70
2022-10-28T02:38:53.563Z,11.70
2022-10-28T02:41:20.158Z,11.80
2022-10-28T02:43:46.796Z,11.70
2022-10-28T02:46:13.417Z,12.00
2022-10-28T02:48:40.070Z,12.10
2022-10-28T02:51:06.700Z,12.20
2022-10-28T02:53:33.331Z,12.10
2022-10-28T02:55:59.947Z,12.00
2022-10-28T02:58:26.567Z,12.00
2022-10-28T03:00:53.240Z,11.80
2022-10-28T03:03:19.880Z,11.70
2022-10-28T03:05:46.630Z,11.50
2022-10-28T03:08:13.243Z,11.50
2022-10-28T03:10:39.828Z,11.40
2022-10-28T03:13:06.448Z,11.40
2022-10-28T03:15:33.028Z,11.20
2022-10-28T03:17:59.635Z,11.30
2022-10-28T03:20:26.251Z,11.00
2022-10-28T03:22:53.123Z,11.20
2022-10-28T03:25:19.840Z,11.10
2022-10-28T03:27:46.474Z,11.30
2022-10-28T03:30:13.072Z,11.00
2022-10-28T03:32:39.687Z,11.10
2022-10-28T03:35:06.273Z,11.10
2022-10-28T03:37:33.015Z,11.00
2022-10-28T03:39:59.598Z,11.30
2022-10-28T03:42:26.217Z,11.50
2022-10-28T03:44:52.816Z,11.50
2022-10-28T03:47:19.405Z,10.80
2022-10-28T03:49:46.015Z,10.90
2022-10-28T03:52:12.636Z,11.00
2022-10-28T03:54:39.243Z,11.10
2022-10-28T03:57:06.045Z,11.00
2022-10-28T03:59:32.665Z,11.10
2022-10-28T04:01:59.580Z,11.30
2022-10-28T04:04:29.925Z,11.50
2022-10-28T04:06:59.620Z,11.50
2022-10-28T04:09:26.216Z,11.50
2022-10-28T04:11:55.226Z,11.30
2022-10-28T04:14:30.576Z,11.50
2022-10-28T04:17:00.824Z,11.60
2022-10-28T04:19:29.512Z,11.60
2022-10-28T04:21:56.126Z,11.60
2022-10-28T04:24:25.909Z,11.10
2022-10-28T04:26:53.546Z,11.10
2022-10-28T04:29:20.177Z,11.00
2022-10-28T04:31:48.758Z,11.00
2022-10-28T04:34:18.143Z,11.10
2022-10-28T04:36:44.738Z,10.80
2022-10-28T04:39:11.346Z,11.00
2022-10-28T04:41:37.958Z,10.60
2022-10-28T04:44:04.581Z,10.80
2022-10-28T04:46:31.172Z,10.60
2022-10-28T04:48:57.775Z,10.40
2022-10-28T04:51:24.386Z,10.70
2022-10-28T04:53:51.004Z,11.00
2022-10-28T04:56:17.615Z,11.20
2022-10-28T04:58:44.213Z,11.10
2022-10-28T05:01:10.920Z,11.10
2022-10-28T05:03:37.649Z,11.00
2022-10-28T05:06:04.332Z,11.10
2022-10-28T05:08:30.976Z,11.00
2022-10-28T05:10:57.573Z,11.10
2022-10-28T05:13:24.196Z,11.20
2022-10-28T05:15:50.801Z,11.00
2022-10-28T05:18:17.471Z,11.10
2022-10-28T05:20:44.077Z,10.70
2022-10-28T05:23:10.688Z,11.00
2022-10-28T05:25:37.314Z,11.10
2022-10-28T05:28:03.914Z,10.80
2022-10-28T05:30:30.515Z,11.00
2022-10-28T05:32:57.534Z,11.20
2022-10-28T05:35:24.540Z,10.80
2022-10-28T05:37:51.153Z,10.80
2022-10-28T05:40:17.887Z,10.90
2022-10-28T05:42:44.532Z,11.00
2022-10-28T05:45:11.150Z,11.00
2022-10-28T05:47:40.011Z,11.00
2022-10-28T05:50:06.822Z,10.90
2022-10-28T05:52:33.490Z,11.00
2022-10-28T05:55:00.143Z,10.50
2022-10-28T05:57:26.737Z,10.70
2022-10-28T05:59:53.358Z,11.00
2022-10-28T06:02:19.953Z,10.80
2022-10-28T06:04:46.562Z,10.90
2022-10-28T06:07:13.205Z,11.10
2022-10-28T06:09:39.984Z,10.90
2022-10-28T06:12:05.062Z,11.00
2022-10-28T06:14:31.644Z,11.10
2022-10-28T06:16:58.262Z,11.30
2022-10-28T06:19:24.875Z,11.40
2022-10-28T06:21:51.471Z,11.50
2022-10-28T06:24:18.095Z,11.50
2022-10-28T06:26:44.687Z,11.40
2022-10-28T06:29:11.361Z,11.50
2022-10-28T06:31:37.947Z,11.50
2022-10-28T06:34:04.583Z,11.40
2022-10-28T06:36:31.203Z,11.60
2022-10-28T06:38:57.861Z,11.80
2022-10-28T06:41:24.487Z,12.00
2022-10-28T06:43:51.111Z,12.10
2022-10-28T06:46:17.747Z,12.10
2022-10-28T06:48:45.886Z,12.10
2022-10-28T06:51:12.476Z,12.20
2022-10-28T06:53:39.077Z,12.20
2022-10-28T06:56:05.761Z,12.50
2022-10-28T06:58:32.375Z,12.80
2022-10-28T07:00:58.985Z,12.80
2022-10-28T07:03:25.619Z,12.80
2022-10-28T07:05:52.254Z,13.10
2022-10-28T07:08:18.903Z,13.30
2022-10-28T07:10:45.525Z,13.40
2022-10-28T07:13:12.135Z,13.40
2022-10-28T07:15:38.755Z,13.70
2022-10-28T07:18:05.361Z,13.70
2022-10-28T07:20:32.033Z,13.40
2022-10-28T07:22:58.691Z,13.60
2022-10-28T07:25:25.287Z,13.70
2022-10-28T07:27:52.126Z,13.90
2022-10-28T07:30:19.033Z,13.90
2022-10-28T07:32:45.633Z,13.60
2022-10-28T07:35:12.248Z,13.90
2022-10-28T07:37:38.846Z,14.20
2022-10-28T07:40:05.514Z,14.40
2022-10-28T07:42:32.106Z,14.70
2022-10-28T07:44:58.705Z,15.00
2022-10-28T07:47:25.782Z,15.10
2022-10-28T07:49:52.365Z,15.30
2022-10-28T07:52:19.014Z,15.50
2022-10-28T07:54:45.625Z,15.50
2022-10-28T07:57:12.582Z,15.70
2022-10-28T07:59:39.191Z,15.80
2022-10-28T08:02:05.979Z,15.90
2022-10-28T08:04:32.597Z,16.00
2022-10-28T08:06:59.196Z,16.10
2022-10-28T08:09:25.852Z,16.10
2022-10-28T08:11:52.661Z,16.20
2022-10-28T08:14:19.282Z,16.20
2022-10-28T08:16:45.892Z,16.50
2022-10-28T08:19:12.539Z,16.70
2022-10-28T08:21:39.145Z,16.80
2022-10-28T08:24:05.759Z,17.00
2022-10-28T08:26:32.818Z,17.10
2022-10-28T08:28:59.405Z,17.10
2022-10-28T08:31:26.071Z,17.10
2022-10-28T08:33:52.687Z,16.90
2022-10-28T08:36:20.111Z,17.00
2022-10-28T08:38:46.711Z,17.10
2022-10-28T08:41:13.341Z,17.00
2022-10-28T08:43:56.078Z,17.10
2022-10-28T08:46:23.162Z,17.20
2022-10-28T08:48:49.781Z,17.30
2022-10-28T08:51:16.412Z,17.70
2022-10-28T08:53:43.003Z,17.90
2022-10-28T08:56:09.654Z,17.80
2022-10-28T08:58:36.295Z,17.60
2022-10-28T09:01:02.982Z,17.60
2022-10-28T09:03:29.660Z,17.60
2022-10-28T09:05:56.252Z,17.60
2022-10-28T09:08:22.853Z,17.80
2022-10-28T09:10:49.700Z,17.80
2022-10-28T09:13:16.320Z,18.10
2022-10-28T09:15:42.938Z,18.20
2022-10-28T09:18:09.556Z,18.20
2022-10-28T09:20:36.472Z,18.30
2022-10-28T09:23:03.101Z,18.30
2022-10-28T09:25:29.723Z,18.30
2022-10-28T09:27:56.629Z,18.60
2022-10-28T09:30:23.566Z,18.90
2022-10-28T09:32:50.151Z,19.00
2022-10-28T09:35:16.823Z,19.00
2022-10-28T09:37:43.443Z,19.20
2022-10-28T09:40:10.035Z,19.10
2022-10-28T09:42:36.713Z,19.30
2022-10-28T09:45:03.382Z,19.40
2022-10-28T09:47:30.156Z,19.50
2022-10-28T09:49:56.742Z,19.60
2022-10-28T09:52:23.504Z,19.70
2022-10-28T09:54:50.121Z,20.10
2022-10-28T09:57:17.525Z,19.90
2022-10-28T09:59:44.355Z,20.00
2022-10-28T10:02:11.029Z,20.30
2022-10-28T10:04:37.651Z,20.70
2022-10-28T10:07:04.251Z,20.60
2022-10-28T10:09:30.864Z,20.70
2022-10-28T10:11:57.484Z,20.90
2022-10-28T10:14:24.079Z,21.10
2022-10-28T10:16:50.689Z,21.00
2022-10-28T10:19:17.316Z,20.90
2022-10-28T10:21:43.973Z,20.90
2022-10-28T10:24:10.622Z,21.30
2022-10-28T10:26:37.217Z,21.50
2022-10-28T10:29:03.853Z,21.60
2022-10-28T10:31:30.457Z,21.80
2022-10-28T10:33:57.116Z,22.10
2022-10-28T10:36:23.917Z,22.20
2022-10-28T10:38:50.552Z,22.20
2022-10-28T10:41:17.196Z,21.90
2022-10-28T10:43:43.781Z,21.80
2022-10-28T10:46:10.394Z,21.90
2022-10-28T10:48:37.014Z,22.20
2022-10-28T10:51:03.619Z,21.80
2022-10-28T10:53:30.240Z,21.60
2022-10-28T10:55:56.952Z,21.90
2022-10-28T10:58:23.565Z,22.20
2022-10-28T11:00:50.195Z,22.40
2022-10-28T11:03:16.787Z,22.10
2022-10-28T11:05:45.468Z,22.10
2022-10-28T11:08:12.136Z,22.20
2022-10-28T11:10:38.730Z,22.20
2022-10-28T11:13:05.338Z,22.10
2022-10-28T11:15:31.976Z,22.30
2022-10-28T11:17:58.589Z,22.50
2022-10-28T11:20:25.174Z,22.30
2022-10-28T11:22:52.038Z,22.00
2022-10-28T11:25:18.951Z,22.40
2022-10-28T11:27:47.514Z,22.60
2022-10-28T11:30:16.656Z,22.30
2022-10-28T11:32:54.543Z,22.30
2022-10-28T11:35:29.910Z,22.40
2022-10-28T11:37:56.543Z,23.00
2022-10-28T11:40:23.177Z,23.00
2022-10-28T11:42:49.768Z,23.20
2022-10-28T11:45:16.382Z,23.00
2022-10-28T11:47:43.012Z,22.90
2022-10-28T11:50:09.648Z,23.00
2022-10-28T11:52:38.118Z,23.00
2022-10-28T11:55:07.845Z,22.70
2022-10-28T11:57:34.491Z,22.80
2022-10-28T12:00:01.146Z,22.20
2022-10-28T12:02:27.988Z,22.50
2022-10-28T12:04:54.632Z,22.30
2022-10-28T12:07:21.227Z,22.40
2022-10-28T12:09:47.813Z,22.90
2022-10-28T12:12:14.497Z,23.10
2022-10-28T12:14:41.113Z,23.20
2022-10-28T12:17:07.726Z,23.10
2022-10-28T12:19:34.380Z,23.20
2022-10-28T12:22:01.017Z,23.20
2022-10-28T12:24:27.821Z,23.10
2022-10-28T12:26:54.534Z,23.50
2022-10-28T12:29:21.281Z,23.40
2022-10-28T12:31:47.911Z,23.80
2022-10-28T12:34:14.539Z,24.10
2022-10-28T12:36:41.711Z,24.10
2022-10-28T12:39:08.364Z,23.70
2022-10-28T12:41:35.041Z,23.00
2022-10-28T12:44:01.729Z,23.30
2022-10-28T12:46:28.374Z,23.70
2022-10-28T12:48:55.015Z,23.80
2022-10-28T12:51:21.615Z,23.70
2022-10-28T12:53:48.405Z,23.90
2022-10-28T12:56:15.069Z,24.00
2022-10-28T12:58:41.747Z,24.10
2022-10-28T13:01:08.459Z,23.10
2022-10-28T13:03:35.142Z,23.20
2022-10-28T13:06:01.825Z,23.80
2022-10-28T13:08:28.416Z,24.00
2022-10-28T13:10:55.054Z,24.20
2022-10-28T13:13:21.677Z,23.90
2022-10-28T13:15:48.333Z,24.20
2022-10-28T13:18:14.964Z,24.40
2022-10-28T13:20:41.625Z,23.80
2022-10-28T13:23:08.281Z,23.30
2022-10-28T13:25:34.878Z,23.20
2022-10-28T13:28:01.531Z,23.10
2022-10-28T13:30:28.180Z,22.60
2022-10-28T13:32:54.781Z,22.50
2022-10-28T13:35:21.407Z,22.50
2022-10-28T13:37:48.059Z,22.90
2022-10-28T13:40:14.667Z,23.40
2022-10-28T13:42:41.305Z,23.80
2022-10-28T13:45:07.906Z,23.80
2022-10-28T13:47:34.552Z,24.10
2022-10-28T13:50:01.169Z,24.00
2022-10-28T13:52:27.793Z,23.80
2022-10-28T13:54:54.461Z,23.60
2022-10-28T13:57:21.098Z,23.40
2022-10-28T13:59:47.755Z,23.50
2022-10-28T14:02:33.839Z,23.40
2022-10-28T14:05:01.023Z,23.50
2022-10-28T14:07:27.654Z,22.90
2022-10-28T14:09:54.293Z,22.70
2022-10-28T14:12:20.922Z,22.80
2022-10-28T14:14:47.571Z,22.80
2022-10-28T14:17:14.227Z,23.10
2022-10-28T14:19:40.897Z,23.00
2022-10-28T14:22:07.619Z,23.10
2022-10-28T14:24:34.316Z,22.80
2022-10-28T14:27:00.936Z,22.40
2022-10-28T14:29:27.531Z,22.40
2022-10-28T14:31:54.144Z,22.60
2022-10-28T14:34:20.760Z,22.90
2022-10-28T14:36:47.385Z,23.00
2022-10-28T14:39:13.996Z,23.20
2022-10-28T14:41:43.826Z,23.20
2022-10-28T14:44:10.454Z,22.80
2022-10-28T14:46:37.066Z,22.60
2022-10-28T14:49:03.662Z,22.90
2022-10-28T14:51:30.300Z,22.80
2022-10-28T14:53:56.893Z,22.70
2022-10-28T14:58:55.028Z,22.90
2022-10-28T15:01:21.776Z,23.00
2022-10-28T15:03:48.511Z,22.80
2022-10-28T15:06:15.119Z,22.90
2022-10-28T15:08:41.744Z,22.80
2022-10-28T15:11:08.353Z,22.80
2022-10-28T15:13:34.983Z,22.80
2022-10-28T15:16:04.598Z,22.70
2022-10-28T15:18:31.450Z,22.50
2022-10-28T15:20:58.074Z,22.30
2022-10-28T15:23:24.734Z,22.20
2022-10-28T15:25:51.378Z,22.10
2022-10-28T15:28:18.030Z,21.60
2022-10-28T15:30:46.618Z,21.40
2022-10-28T15:33:13.516Z,21.10
2022-10-28T15:35:40.123Z,21.10
2022-10-28T15:38:06.781Z,20.90
2022-10-28T15:40:33.386Z,21.00
2022-10-28T15:43:00.084Z,20.80
2022-10-28T15:45:26.807Z,20.80
2022-10-28T15:47:53.734Z,20.50
2022-10-28T15:50:20.501Z,20.50
2022-10-28T15:52:47.096Z,20.60
2022-10-28T15:55:13.726Z,20.60
2022-10-28T15:57:40.344Z,20.60
2022-10-28T16:00:06.946Z,20.60
2022-10-28T16:02:33.756Z,20.50
2022-10-28T16:05:00.531Z,20.50
2022-10-28T16:07:27.141Z,20.10
2022-10-28T16:09:53.759Z,19.90
2022-10-28T16:12:20.384Z,19.90
2022-10-28T16:14:46.974Z,19.90
2022-10-28T16:17:13.600Z,19.80
2022-10-28T16:19:40.222Z,19.60
2022-10-28T16:22:06.834Z,19.50
2022-10-28T16:24:33.481Z,19.40
2022-10-28T16:27:00.107Z,19.30
2022-10-28T16:29:26.773Z,19.10
2022-10-28T16:31:53.388Z,19.20
2022-10-28T16:34:20.202Z,19.20
2022-10-28T16:36:46.853Z,19.10
2022-10-28T16:39:13.475Z,19.00
2022-10-28T16:41:40.115Z,19.00
2022-10-28T16:46:38.227Z,18.60
2022-10-28T16:49:04.860Z,18.30
2022-10-28T16:51:31.483Z,18.20
2022-10-28T16:53:58.097Z,18.00
2022-10-28T16:56:24.686Z,18.00
2022-10-28T16:58:51.300Z,18.00
2022-10-28T17:01:17.936Z,17.90
2022-10-28T17:03:44.640Z,17.80
2022-10-28T17:06:11.226Z,17.70
2022-10-28T17:09:01.215Z,18.00
2022-10-28T17:11:24.525Z,17.90
2022-10-28T17:13:51.228Z,17.70
2022-10-28T17:16:17.842Z,17.40
2022-10-28T17:18:44.473Z,17.70
2022-10-28T17:21:11.127Z,17.90
2022-10-28T17:23:37.725Z,18.00
2022-10-28T17:26:04.336Z,18.00
2022-10-28T17:28:31.720Z,18.00
2022-10-28T17:30:58.374Z,18.00
2022-10-28T17:33:24.970Z,17.90
2022-10-28T17:35:51.650Z,17.60
2022-10-28T17:38:18.287Z,17.70
2022-10-28T17:40:44.918Z,17.70
2022-10-28T17:43:11.544Z,17.50
2022-10-28T17:45:38.139Z,17.30
2022-10-28T17:48:04.759Z,17.50
2022-10-28T17:50:31.384Z,17.50
2022-10-28T17:52:58.185Z,17.10
2022-10-28T17:55:24.982Z,16.50
2022-10-28T17:57:51.767Z,16.80
2022-10-28T18:00:18.508Z,16.90
2022-10-28T18:02:45.254Z,17.10
2022-10-28T18:05:12.055Z,17.20
2022-10-28T18:07:38.696Z,17.20
2022-10-28T18:10:05.301Z,17.10
2022-10-28T18:12:31.912Z,16.90
2022-10-28T18:14:58.524Z,16.90
2022-10-28T18:17:25.134Z,17.00
2022-10-28T18:19:51.732Z,16.90
2022-10-28T18:22:18.381Z,16.60
2022-10-28T18:24:45.081Z,16.20
2022-10-28T18:27:11.717Z,16.30
2022-10-28T18:29:38.301Z,16.50
2022-10-28T18:32:04.927Z,16.70
2022-10-28T18:34:31.659Z,16.70
2022-10-28T18:36:58.366Z,16.70
2022-10-28T18:39:24.997Z,16.80
2022-10-28T18:41:51.723Z,16.30
2022-10-28T18:44:18.383Z,16.40
2022-10-28T18:46:45.024Z,16.10
2022-10-28T18:49:11.617Z,16.30
2022-10-28T18:51:38.262Z,16.40
2022-10-28T18:54:04.898Z,16.30
2022-10-28T18:56:31.510Z,16.30
2022-10-28T18:58:58.151Z,16.40
2022-10-28T19:01:24.926Z,16.50
2022-10-28T19:03:51.631Z,16.50
2022-10-28T19:06:18.260Z,16.50
2022-10-28T19:08:44.902Z,16.50
2022-10-28T19:11:11.530Z,16.30
2022-10-28T19:13:38.205Z,16.00
2022-10-28T19:16:04.865Z,15.90
2022-10-28T19:18:31.561Z,15.90
2022-10-28T19:20:58.145Z,15.80
2022-10-28T19:23:24.785Z,15.80
2022-10-28T19:25:51.444Z,15.60
2022-10-28T19:28:18.053Z,15.20
2022-10-28T19:30:44.680Z,15.10
2022-10-28T19:33:11.322Z,15.20
2022-10-28T19:35:38.016Z,15.40
2022-10-28T19:38:04.660Z,15.50
2022-10-28T19:40:31.284Z,15.50
2022-10-28T19:42:57.938Z,15.40
2022-10-28T19:45:24.625Z,15.40
2022-10-28T19:47:51.265Z,15.40
2022-10-28T19:50:17.955Z,15.30
2022-10-28T19:52:44.565Z,15.00
2022-10-28T19:55:14.912Z,15.20
2022-10-28T19:57:41.840Z,15.30
2022-10-28T20:00:08.462Z,15.30
2022-10-28T20:02:35.274Z,15.30
2022-10-28T20:05:01.966Z,15.00
2022-10-28T20:07:28.568Z,14.90
2022-10-28T20:09:55.237Z,14.50
2022-10-28T20:12:21.896Z,14.90
2022-10-28T20:14:48.509Z,15.10
2022-10-28T20:17:15.227Z,15.20
2022-10-28T20:19:41.876Z,15.20
2022-10-28T20:22:08.480Z,14.80
2022-10-28T20:24:35.073Z,14.50
2022-10-28T20:27:01.697Z,14.30
2022-10-28T20:29:28.323Z,14.20
2022-10-28T20:31:54.970Z,14.50
2022-10-28T20:34:21.566Z,14.40
2022-10-28T20:36:48.205Z,14.60
2022-10-28T20:39:14.812Z,14.70
2022-10-28T20:41:41.403Z,14.00
2022-10-28T20:44:08.090Z,14.30
2022-10-28T20:46:34.753Z,14.40
2022-10-28T20:49:01.499Z,14.20
2022-10-28T20:51:28.639Z,14.00
2022-10-28T20:53:55.248Z,14.10
2022-10-28T20:56:21.908Z,14.40
2022-10-28T20:58:48.532Z,14.30
2022-10-28T21:01:15.292Z,14.20
2022-10-28T21:03:42.152Z,14.40
2022-10-28T21:06:08.864Z,14.60
2022-10-28T21:08:35.480Z,14.70
2022-10-28T21:11:02.106Z,14.30
2022-10-28T21:13:28.697Z,14.40
2022-10-28T21:15:57.645Z,14.30
2022-10-28T21:18:24.655Z,14.00
2022-10-28T21:20:51.275Z,14.20
2022-10-28T21:23:17.944Z,14.10
2022-10-28T21:25:44.550Z,14.30
2022-10-28T21:28:11.191Z,14.30
2022-10-28T21:30:37.866Z,14.40
2022-10-28T21:33:04.487Z,14.40
2022-10-28T21:35:31.127Z,14.40
2022-10-28T21:37:58.116Z,14.10
2022-10-28T21:40:24.990Z,13.80
2022-10-28T21:42:51.583Z,13.60
2022-10-28T21:45:18.207Z,13.80
2022-10-28T21:47:44.817Z,13.90
2022-10-28T21:50:11.462Z,14.10
2022-10-28T21:52:38.075Z,14.20
2022-10-28T21:55:14.577Z,14.00
2022-10-28T21:57:47.479Z,14.10
2022-10-28T22:00:14.076Z,14.20
2022-10-28T22:02:40.870Z,13.80
2022-10-28T22:05:07.568Z,13.80
2022-10-28T22:07:34.186Z,13.70
2022-10-28T22:10:00.802Z,13.70
2022-10-28T22:12:27.398Z,13.40
2022-10-28T22:14:54.034Z,13.50
2022-10-28T22:17:20.675Z,13.70
2022-10-28T22:19:47.302Z,13.70
2022-10-28T22:22:13.894Z,13.30
2022-10-28T22:24:40.518Z,13.40
2022-10-28T22:27:07.137Z,13.60
2022-10-28T22:29:33.793Z,13.70
2022-10-28T22:32:00.385Z,13.40
2022-10-28T22:34:27.013Z,13.40
2022-10-28T22:36:53.637Z,13.50
2022-10-28T22:39:20.226Z,13.40
2022-10-28T22:41:46.840Z,13.50
2022-10-28T22:44:13.459Z,13.60
2022-10-28T22:46:40.152Z,13.30
2022-10-28T22:49:06.882Z,13.40
2022-10-28T22:51:33.555Z,13.50
2022-10-28T22:54:00.146Z,13.60
2022-10-28T22:56:26.759Z,13.60
2022-10-28T22:58:53.362Z,13.70
2022-10-28T23:01:20.056Z,13.70
2022-10-28T23:03:46.793Z,13.70
2022-10-28T23:06:13.393Z,13.50
2022-10-28T23:08:40.008Z,13.50
2022-10-28T23:11:06.648Z,13.50
2022-10-28T23:13:33.341Z,13.40
2022-10-28T23:15:59.987Z,13.40
2022-10-28T23:18:26.578Z,13.10
2022-10-28T23:20:53.170Z,13.00
2022-10-28T23:23:19.837Z,13.10
2022-10-28T23:25:46.426Z,12.90
2022-10-28T23:28:13.059Z,13.00
2022-10-28T23:30:39.654Z,12.90
2022-10-28T23:33:06.287Z,12.80
2022-10-28T23:35:32.883Z,12.70
2022-10-28T23:37:59.495Z,12.80
2022-10-28T23:40:26.144Z,12.80
2022-10-28T23:42:52.952Z,13.00
2022-10-28T23:45:19.791Z,13.00
2022-10-28T23:47:46.387Z,13.00
2022-10-28T23:50:13.006Z,13.00
2022-10-28T23:52:39.587Z,13.00
2022-10-28T23:55:06.220Z,13.10
2022-10-28T23:57:32.817Z,13.00
2022-10-28T23:59:59.427Z,12.30
